sensor_id;sensor_type;location;lat;lon;timestamp;temperature;humidity
23556;DHT22;11956;53.184;8.578;2023-07-28T00:02:57;18.00;99.90
23556;DHT22;11956;53.184;8.578;2023-07-28T00:05:58;18.00;99.90
23556;DHT22;11956;53.184;8.578;2023-07-28T00:08:59;18.10;99.90
23556;DHT22;11956;53.184;8.578;2023-07-28T00:12:00;18.10;99.90
23556;DHT22;11956;53.184;8.578;2023-07-28T00:15:01;18.00;99.90
23556;DHT22;11956;53.184;8.578;2023-07-28T00:18:02;18.00;99.90
23556;DHT22;11956;53.184;8.578;2023-07-28T00:21:05;18.00;99.90
23556;DHT22;11956;53.184;8.578;2023-07-28T00:24:06;17.90;99.90
23556;DHT22;11956;53.184;8.578;2023-07-28T00:27:07;17.90;99.90
23556;DHT22;11956;53.184;8.578;2023-07-28T00:30:09;18.00;99.90
23556;DHT22;11956;53.184;8.578;2023-07-28T00:33:11;18.00;99.90
23556;DHT22;11956;53.184;8.578;2023-07-28T00:36:12;17.90;99.90
23556;DHT22;11956;53.184;8.578;2023-07-28T00:39:13;18.00;99.90
23556;DHT22;11956;53.184;8.578;2023-07-28T00:42:14;17.90;99.90
23556;DHT22;11956;53.184;8.578;2023-07-28T00:45:15;17.90;99.90
23556;DHT22;11956;53.184;8.578;2023-07-28T00:48:17;17.90;99.90
23556;DHT22;11956;53.184;8.578;2023-07-28T00:51:18;17.90;99.90
23556;DHT22;11956;53.184;8.578;2023-07-28T00:54:19;17.90;99.90
23556;DHT22;11956;53.184;8.578;2023-07-28T00:57:20;17.90;99.90
23556;DHT22;11956;53.184;8.578;2023-07-28T01:00:21;17.90;99.90
23556;DHT22;11956;53.184;8.578;2023-07-28T01:03:22;17.90;99.90
23556;DHT22;11956;53.184;8.578;2023-07-28T01:10:10;17.80;99.90
23556;DHT22;11956;53.184;8.578;2023-07-28T01:13:18;17.80;99.90
23556;DHT22;11956;53.184;8.578;2023-07-28T01:16:19;17.80;99.90
23556;DHT22;11956;53.184;8.578;2023-07-28T01:19:21;17.80;99.90
23556;DHT22;11956;53.184;8.578;2023-07-28T01:26:05;17.80;99.90
23556;DHT22;11956;53.184;8.578;2023-07-28T01:29:09;17.80;99.90
23556;DHT22;11956;53.184;8.578;2023-07-28T01:32:11;17.80;99.90
23556;DHT22;11956;53.184;8.578;2023-07-28T01:35:12;17.80;99.90
23556;DHT22;11956;53.184;8.578;2023-07-28T01:38:13;17.80;99.90
23556;DHT22;11956;53.184;8.578;2023-07-28T01:41:14;17.80;99.90
23556;DHT22;11956;53.184;8.578;2023-07-28T01:44:15;17.90;99.90
23556;DHT22;11956;53.184;8.578;2023-07-28T01:47:16;17.90;99.90
23556;DHT22;11956;53.184;8.578;2023-07-28T01:50:17;17.90;99.90
23556;DHT22;11956;53.184;8.578;2023-07-28T01:53:18;17.90;99.90
23556;DHT22;11956;53.184;8.578;2023-07-28T01:56:18;17.90;99.90
23556;DHT22;11956;53.184;8.578;2023-07-28T01:59:19;17.90;99.90
23556;DHT22;11956;53.184;8.578;2023-07-28T02:02:22;17.90;99.90
23556;DHT22;11956;53.184;8.578;2023-07-28T02:05:22;17.90;99.90
23556;DHT22;11956;53.184;8.578;2023-07-28T02:08:23;17.90;99.90
23556;DHT22;11956;53.184;8.578;2023-07-28T02:11:24;17.90;99.90
23556;DHT22;11956;53.184;8.578;2023-07-28T02:14:25;17.90;99.90
23556;DHT22;11956;53.184;8.578;2023-07-28T02:17:26;17.90;99.90
23556;DHT22;11956;53.184;8.578;2023-07-28T02:20:27;17.90;99.90
23556;DHT22;11956;53.184;8.578;2023-07-28T02:23:27;17.80;99.90
23556;DHT22;11956;53.184;8.578;2023-07-28T02:26:28;17.90;99.90
23556;DHT22;11956;53.184;8.578;2023-07-28T02:29:29;17.90;99.90
23556;DHT22;11956;53.184;8.578;2023-07-28T02:32:30;17.90;99.90
23556;DHT22;11956;53.184;8.578;2023-07-28T02:35:32;17.90;99.90
23556;DHT22;11956;53.184;8.578;2023-07-28T02:38:33;17.90;99.90
23556;DHT22;11956;53.184;8.578;2023-07-28T02:41:34;17.90;99.90
23556;DHT22;11956;53.184;8.578;2023-07-28T02:44:34;18.00;99.90
23556;DHT22;11956;53.184;8.578;2023-07-28T02:47:36;18.00;99.90
23556;DHT22;11956;53.184;8.578;2023-07-28T02:50:37;17.90;99.90
23556;DHT22;11956;53.184;8.578;2023-07-28T02:53:37;17.90;99.90
23556;DHT22;11956;53.184;8.578;2023-07-28T02:56:38;18.00;99.90
23556;DHT22;11956;53.184;8.578;2023-07-28T02:59:44;18.00;99.90
23556;DHT22;11956;53.184;8.578;2023-07-28T03:02:45;18.00;99.90
23556;DHT22;11956;53.184;8.578;2023-07-28T03:05:46;17.90;99.90
23556;DHT22;11956;53.184;8.578;2023-07-28T03:09:00;17.90;99.90
23556;DHT22;11956;53.184;8.578;2023-07-28T03:12:14;17.90;99.90
23556;DHT22;11956;53.184;8.578;2023-07-28T03:15:15;17.90;99.90
23556;DHT22;11956;53.184;8.578;2023-07-28T03:18:16;18.00;99.90
23556;DHT22;11956;53.184;8.578;2023-07-28T03:21:17;17.90;99.90
23556;DHT22;11956;53.184;8.578;2023-07-28T03:24:18;17.90;99.90
23556;DHT22;11956;53.184;8.578;2023-07-28T03:27:19;18.00;99.90
23556;DHT22;11956;53.184;8.578;2023-07-28T03:30:20;17.90;99.90
23556;DHT22;11956;53.184;8.578;2023-07-28T03:33:21;17.90;99.90
23556;DHT22;11956;53.184;8.578;2023-07-28T03:36:21;18.00;99.90
23556;DHT22;11956;53.184;8.578;2023-07-28T03:39:22;17.90;99.90
23556;DHT22;11956;53.184;8.578;2023-07-28T03:42:24;17.90;99.90
23556;DHT22;11956;53.184;8.578;2023-07-28T03:45:25;17.90;99.90
23556;DHT22;11956;53.184;8.578;2023-07-28T03:48:25;17.80;99.90
23556;DHT22;11956;53.184;8.578;2023-07-28T03:51:26;17.80;99.90
23556;DHT22;11956;53.184;8.578;2023-07-28T03:54:27;17.80;99.90
23556;DHT22;11956;53.184;8.578;2023-07-28T03:57:28;17.80;99.90
23556;DHT22;11956;53.184;8.578;2023-07-28T04:00:29;17.80;99.90
23556;DHT22;11956;53.184;8.578;2023-07-28T04:03:30;17.80;99.90
23556;DHT22;11956;53.184;8.578;2023-07-28T04:06:42;17.80;99.90
23556;DHT22;11956;53.184;8.578;2023-07-28T04:09:44;17.80;99.90
23556;DHT22;11956;53.184;8.578;2023-07-28T04:12:45;17.80;99.90
23556;DHT22;11956;53.184;8.578;2023-07-28T04:15:45;17.70;99.90
23556;DHT22;11956;53.184;8.578;2023-07-28T04:18:46;17.70;99.90
23556;DHT22;11956;53.184;8.578;2023-07-28T04:21:47;17.70;99.90
23556;DHT22;11956;53.184;8.578;2023-07-28T04:24:48;17.70;99.90
23556;DHT22;11956;53.184;8.578;2023-07-28T04:27:49;17.70;99.90
23556;DHT22;11956;53.184;8.578;2023-07-28T04:30:51;17.70;99.90
23556;DHT22;11956;53.184;8.578;2023-07-28T04:34:11;17.70;99.90
23556;DHT22;11956;53.184;8.578;2023-07-28T04:37:31;17.70;99.90
23556;DHT22;11956;53.184;8.578;2023-07-28T04:40:35;17.70;99.90
23556;DHT22;11956;53.184;8.578;2023-07-28T04:43:36;17.80;99.90
23556;DHT22;11956;53.184;8.578;2023-07-28T04:46:36;17.70;99.90
23556;DHT22;11956;53.184;8.578;2023-07-28T04:49:42;17.70;99.90
23556;DHT22;11956;53.184;8.578;2023-07-28T04:52:42;17.70;99.90
23556;DHT22;11956;53.184;8.578;2023-07-28T04:56:02;17.70;99.90
23556;DHT22;11956;53.184;8.578;2023-07-28T04:59:04;17.60;99.90
23556;DHT22;11956;53.184;8.578;2023-07-28T05:02:06;17.60;99.90
23556;DHT22;11956;53.184;8.578;2023-07-28T05:05:07;17.60;99.90
23556;DHT22;11956;53.184;8.578;2023-07-28T05:08:08;17.70;99.90
23556;DHT22;11956;53.184;8.578;2023-07-28T05:11:09;17.70;99.90
23556;DHT22;11956;53.184;8.578;2023-07-28T05:14:10;17.70;99.90
23556;DHT22;11956;53.184;8.578;2023-07-28T05:17:12;17.70;99.90
23556;DHT22;11956;53.184;8.578;2023-07-28T05:20:21;17.70;99.90
23556;DHT22;11956;53.184;8.578;2023-07-28T05:23:30;17.70;99.90
23556;DHT22;11956;53.184;8.578;2023-07-28T05:26:30;17.60;99.90
23556;DHT22;11956;53.184;8.578;2023-07-28T05:29:31;17.60;99.90
23556;DHT22;11956;53.184;8.578;2023-07-28T05:32:37;17.60;99.90
23556;DHT22;11956;53.184;8.578;2023-07-28T05:35:59;17.70;99.90
23556;DHT22;11956;53.184;8.578;2023-07-28T05:39:01;17.80;99.90
23556;DHT22;11956;53.184;8.578;2023-07-28T05:42:11;17.80;99.90
23556;DHT22;11956;53.184;8.578;2023-07-28T05:45:12;17.80;99.90
23556;DHT22;11956;53.184;8.578;2023-07-28T05:48:13;17.90;99.90
23556;DHT22;11956;53.184;8.578;2023-07-28T05:51:14;18.00;99.90
23556;DHT22;11956;53.184;8.578;2023-07-28T05:54:16;18.00;99.90
23556;DHT22;11956;53.184;8.578;2023-07-28T05:57:17;18.00;99.90
23556;DHT22;11956;53.184;8.578;2023-07-28T06:00:18;18.00;99.90
23556;DHT22;11956;53.184;8.578;2023-07-28T06:03:19;17.90;99.90
23556;DHT22;11956;53.184;8.578;2023-07-28T06:06:32;17.80;99.90
23556;DHT22;11956;53.184;8.578;2023-07-28T06:09:33;17.80;99.90
23556;DHT22;11956;53.184;8.578;2023-07-28T06:12:35;17.80;99.90
23556;DHT22;11956;53.184;8.578;2023-07-28T06:15:39;17.80;99.90
23556;DHT22;11956;53.184;8.578;2023-07-28T06:18:41;17.90;99.90
23556;DHT22;11956;53.184;8.578;2023-07-28T06:21:52;17.90;99.90
23556;DHT22;11956;53.184;8.578;2023-07-28T06:24:53;18.00;99.90
23556;DHT22;11956;53.184;8.578;2023-07-28T06:27:54;18.10;99.90
23556;DHT22;11956;53.184;8.578;2023-07-28T06:30:56;18.00;99.90
23556;DHT22;11956;53.184;8.578;2023-07-28T06:33:59;18.10;99.90
23556;DHT22;11956;53.184;8.578;2023-07-28T06:37:00;18.20;99.90
23556;DHT22;11956;53.184;8.578;2023-07-28T06:40:01;18.20;99.90
23556;DHT22;11956;53.184;8.578;2023-07-28T06:43:02;18.30;99.90
23556;DHT22;11956;53.184;8.578;2023-07-28T06:46:03;18.40;99.90
23556;DHT22;11956;53.184;8.578;2023-07-28T06:49:04;18.50;99.90
23556;DHT22;11956;53.184;8.578;2023-07-28T06:52:05;18.50;99.90
23556;DHT22;11956;53.184;8.578;2023-07-28T06:55:07;18.50;99.90
23556;DHT22;11956;53.184;8.578;2023-07-28T06:58:10;18.50;99.90
23556;DHT22;11956;53.184;8.578;2023-07-28T07:01:11;18.50;99.90
23556;DHT22;11956;53.184;8.578;2023-07-28T07:04:12;18.50;99.90
23556;DHT22;11956;53.184;8.578;2023-07-28T07:07:13;18.60;99.90
23556;DHT22;11956;53.184;8.578;2023-07-28T07:10:13;18.60;99.90
23556;DHT22;11956;53.184;8.578;2023-07-28T07:13:14;18.70;99.90
23556;DHT22;11956;53.184;8.578;2023-07-28T07:16:16;18.70;99.90
23556;DHT22;11956;53.184;8.578;2023-07-28T07:19:17;18.70;99.90
23556;DHT22;11956;53.184;8.578;2023-07-28T07:22:18;18.70;99.90
23556;DHT22;11956;53.184;8.578;2023-07-28T07:25:19;18.70;99.90
23556;DHT22;11956;53.184;8.578;2023-07-28T07:28:19;18.80;99.90
23556;DHT22;11956;53.184;8.578;2023-07-28T07:31:21;18.80;99.90
23556;DHT22;11956;53.184;8.578;2023-07-28T07:34:24;18.80;99.90
23556;DHT22;11956;53.184;8.578;2023-07-28T07:37:25;18.80;99.90
23556;DHT22;11956;53.184;8.578;2023-07-28T07:40:26;18.70;99.90
23556;DHT22;11956;53.184;8.578;2023-07-28T07:43:28;18.70;99.90
23556;DHT22;11956;53.184;8.578;2023-07-28T07:46:29;18.80;99.90
23556;DHT22;11956;53.184;8.578;2023-07-28T07:49:30;18.80;99.90
23556;DHT22;11956;53.184;8.578;2023-07-28T07:52:32;18.90;99.90
23556;DHT22;11956;53.184;8.578;2023-07-28T07:55:33;19.00;99.90
23556;DHT22;11956;53.184;8.578;2023-07-28T07:58:34;19.00;99.90
23556;DHT22;11956;53.184;8.578;2023-07-28T08:01:35;19.00;99.90
23556;DHT22;11956;53.184;8.578;2023-07-28T08:04:36;19.00;99.90
23556;DHT22;11956;53.184;8.578;2023-07-28T08:07:38;19.20;99.90
23556;DHT22;11956;53.184;8.578;2023-07-28T08:10:40;19.10;99.90
23556;DHT22;11956;53.184;8.578;2023-07-28T08:13:42;19.10;99.90
23556;DHT22;11956;53.184;8.578;2023-07-28T08:16:44;19.30;99.90
23556;DHT22;11956;53.184;8.578;2023-07-28T08:19:45;19.40;99.90
23556;DHT22;11956;53.184;8.578;2023-07-28T08:22:48;19.40;99.90
23556;DHT22;11956;53.184;8.578;2023-07-28T08:25:52;19.40;99.90
23556;DHT22;11956;53.184;8.578;2023-07-28T08:28:54;19.40;99.90
23556;DHT22;11956;53.184;8.578;2023-07-28T08:31:56;19.50;99.90
23556;DHT22;11956;53.184;8.578;2023-07-28T08:34:57;19.50;99.90
23556;DHT22;11956;53.184;8.578;2023-07-28T08:37:59;19.70;99.90
23556;DHT22;11956;53.184;8.578;2023-07-28T08:41:00;19.90;99.90
23556;DHT22;11956;53.184;8.578;2023-07-28T08:44:02;20.00;99.90
23556;DHT22;11956;53.184;8.578;2023-07-28T08:47:04;19.90;99.90
23556;DHT22;11956;53.184;8.578;2023-07-28T08:50:05;19.80;99.90
23556;DHT22;11956;53.184;8.578;2023-07-28T08:53:06;19.90;99.90
23556;DHT22;11956;53.184;8.578;2023-07-28T08:56:08;20.10;99.90
23556;DHT22;11956;53.184;8.578;2023-07-28T08:59:09;20.20;99.90
23556;DHT22;11956;53.184;8.578;2023-07-28T09:02:10;20.10;99.90
23556;DHT22;11956;53.184;8.578;2023-07-28T09:05:19;20.00;99.90
23556;DHT22;11956;53.184;8.578;2023-07-28T09:08:20;20.00;99.90
23556;DHT22;11956;53.184;8.578;2023-07-28T09:11:24;20.10;99.90
23556;DHT22;11956;53.184;8.578;2023-07-28T09:14:27;20.60;99.90
23556;DHT22;11956;53.184;8.578;2023-07-28T09:17:31;21.50;99.90
23556;DHT22;11956;53.184;8.578;2023-07-28T09:20:35;21.80;99.90
23556;DHT22;11956;53.184;8.578;2023-07-28T09:23:36;21.70;99.90
23556;DHT22;11956;53.184;8.578;2023-07-28T09:26:39;22.90;99.90
23556;DHT22;11956;53.184;8.578;2023-07-28T09:29:42;24.60;99.90
23556;DHT22;11956;53.184;8.578;2023-07-28T09:32:47;25.50;99.90
23556;DHT22;11956;53.184;8.578;2023-07-28T09:35:50;25.10;99.90
23556;DHT22;11956;53.184;8.578;2023-07-28T09:38:52;24.20;99.90
23556;DHT22;11956;53.184;8.578;2023-07-28T09:41:54;23.50;99.90
23556;DHT22;11956;53.184;8.578;2023-07-28T09:44:58;23.50;99.90
23556;DHT22;11956;53.184;8.578;2023-07-28T09:48:02;23.50;99.90
23556;DHT22;11956;53.184;8.578;2023-07-28T09:51:06;23.10;99.90
23556;DHT22;11956;53.184;8.578;2023-07-28T09:54:38;22.90;99.90
23556;DHT22;11956;53.184;8.578;2023-07-28T09:57:46;22.70;99.90
23556;DHT22;11956;53.184;8.578;2023-07-28T10:00:53;22.20;99.90
23556;DHT22;11956;53.184;8.578;2023-07-28T10:03:54;21.80;99.90
23556;DHT22;11956;53.184;8.578;2023-07-28T10:06:55;21.90;99.90
23556;DHT22;11956;53.184;8.578;2023-07-28T10:09:57;21.80;99.90
23556;DHT22;11956;53.184;8.578;2023-07-28T10:12:58;21.80;99.90
23556;DHT22;11956;53.184;8.578;2023-07-28T10:16:01;22.00;99.90
23556;DHT22;11956;53.184;8.578;2023-07-28T10:19:03;22.00;99.90
23556;DHT22;11956;53.184;8.578;2023-07-28T10:22:09;22.50;99.90
23556;DHT22;11956;53.184;8.578;2023-07-28T10:25:10;23.60;99.90
23556;DHT22;11956;53.184;8.578;2023-07-28T10:28:29;25.40;99.90
23556;DHT22;11956;53.184;8.578;2023-07-28T10:31:31;26.10;99.90
23556;DHT22;11956;53.184;8.578;2023-07-28T10:34:32;25.90;99.90
23556;DHT22;11956;53.184;8.578;2023-07-28T10:37:34;26.90;99.90
23556;DHT22;11956;53.184;8.578;2023-07-28T10:40:37;27.30;99.90
23556;DHT22;11956;53.184;8.578;2023-07-28T10:43:39;26.80;99.90
23556;DHT22;11956;53.184;8.578;2023-07-28T10:46:41;25.70;99.90
23556;DHT22;11956;53.184;8.578;2023-07-28T10:49:42;25.40;99.90
23556;DHT22;11956;53.184;8.578;2023-07-28T10:52:43;26.80;99.90
23556;DHT22;11956;53.184;8.578;2023-07-28T10:55:48;28.00;99.90
23556;DHT22;11956;53.184;8.578;2023-07-28T10:58:59;29.30;99.90
23556;DHT22;11956;53.184;8.578;2023-07-28T11:02:14;29.50;99.90
23556;DHT22;11956;53.184;8.578;2023-07-28T11:05:21;29.10;99.90
23556;DHT22;11956;53.184;8.578;2023-07-28T11:08:30;27.50;99.90
23556;DHT22;11956;53.184;8.578;2023-07-28T11:11:30;26.40;99.90
23556;DHT22;11956;53.184;8.578;2023-07-28T11:14:31;26.10;99.90
23556;DHT22;11956;53.184;8.578;2023-07-28T11:17:32;26.10;99.90
23556;DHT22;11956;53.184;8.578;2023-07-28T11:20:33;25.90;99.90
23556;DHT22;11956;53.184;8.578;2023-07-28T11:23:34;25.80;99.90
23556;DHT22;11956;53.184;8.578;2023-07-28T11:26:37;25.30;99.90
23556;DHT22;11956;53.184;8.578;2023-07-28T11:29:39;24.20;99.90
23556;DHT22;11956;53.184;8.578;2023-07-28T11:32:44;23.50;99.90
23556;DHT22;11956;53.184;8.578;2023-07-28T11:35:47;23.20;99.90
23556;DHT22;11956;53.184;8.578;2023-07-28T11:38:48;23.00;99.90
23556;DHT22;11956;53.184;8.578;2023-07-28T11:41:49;23.00;99.90
23556;DHT22;11956;53.184;8.578;2023-07-28T11:44:54;23.20;99.90
23556;DHT22;11956;53.184;8.578;2023-07-28T11:47:55;23.20;99.90
23556;DHT22;11956;53.184;8.578;2023-07-28T11:51:00;23.50;99.90
23556;DHT22;11956;53.184;8.578;2023-07-28T11:54:01;23.60;99.90
23556;DHT22;11956;53.184;8.578;2023-07-28T11:57:02;23.40;99.90
23556;DHT22;11956;53.184;8.578;2023-07-28T12:00:04;23.50;99.90
23556;DHT22;11956;53.184;8.578;2023-07-28T12:03:10;23.50;99.90
23556;DHT22;11956;53.184;8.578;2023-07-28T12:06:12;23.40;99.90
23556;DHT22;11956;53.184;8.578;2023-07-28T12:09:16;23.80;99.90
23556;DHT22;11956;53.184;8.578;2023-07-28T12:12:23;24.10;99.90
23556;DHT22;11956;53.184;8.578;2023-07-28T12:15:26;24.20;99.90
23556;DHT22;11956;53.184;8.578;2023-07-28T12:18:31;24.20;99.90
23556;DHT22;11956;53.184;8.578;2023-07-28T12:21:32;24.50;99.90
23556;DHT22;11956;53.184;8.578;2023-07-28T12:24:33;24.50;99.90
23556;DHT22;11956;53.184;8.578;2023-07-28T12:27:34;24.50;99.90
23556;DHT22;11956;53.184;8.578;2023-07-28T12:30:36;24.20;99.90
23556;DHT22;11956;53.184;8.578;2023-07-28T12:33:37;23.80;99.90
23556;DHT22;11956;53.184;8.578;2023-07-28T12:36:39;23.80;99.90
23556;DHT22;11956;53.184;8.578;2023-07-28T12:39:41;24.00;99.90
23556;DHT22;11956;53.184;8.578;2023-07-28T12:42:41;24.40;99.90
23556;DHT22;11956;53.184;8.578;2023-07-28T12:45:42;24.70;99.90
23556;DHT22;11956;53.184;8.578;2023-07-28T12:48:43;24.70;99.90
23556;DHT22;11956;53.184;8.578;2023-07-28T12:51:44;24.50;99.90
23556;DHT22;11956;53.184;8.578;2023-07-28T12:54:45;24.40;99.90
23556;DHT22;11956;53.184;8.578;2023-07-28T12:57:46;24.30;99.90
23556;DHT22;11956;53.184;8.578;2023-07-28T13:00:49;24.10;99.90
23556;DHT22;11956;53.184;8.578;2023-07-28T13:03:49;24.00;99.90
23556;DHT22;11956;53.184;8.578;2023-07-28T13:06:50;24.00;99.90
23556;DHT22;11956;53.184;8.578;2023-07-28T13:09:51;24.00;99.90
23556;DHT22;11956;53.184;8.578;2023-07-28T13:12:53;24.00;99.90
23556;DHT22;11956;53.184;8.578;2023-07-28T13:15:53;24.20;99.90
23556;DHT22;11956;53.184;8.578;2023-07-28T13:18:54;24.60;99.90
23556;DHT22;11956;53.184;8.578;2023-07-28T13:21:56;24.90;99.90
23556;DHT22;11956;53.184;8.578;2023-07-28T13:24:57;25.10;99.90
23556;DHT22;11956;53.184;8.578;2023-07-28T13:27:58;25.10;99.90
23556;DHT22;11956;53.184;8.578;2023-07-28T13:30:59;25.10;99.90
23556;DHT22;11956;53.184;8.578;2023-07-28T13:34:00;25.20;99.90
23556;DHT22;11956;53.184;8.578;2023-07-28T13:37:01;25.10;99.90
23556;DHT22;11956;53.184;8.578;2023-07-28T13:40:02;25.20;99.90
23556;DHT22;11956;53.184;8.578;2023-07-28T13:43:03;25.50;99.90
23556;DHT22;11956;53.184;8.578;2023-07-28T13:46:04;25.50;99.90
23556;DHT22;11956;53.184;8.578;2023-07-28T13:49:05;25.10;99.90
23556;DHT22;11956;53.184;8.578;2023-07-28T13:52:06;24.90;99.90
23556;DHT22;11956;53.184;8.578;2023-07-28T13:55:07;24.90;99.90
23556;DHT22;11956;53.184;8.578;2023-07-28T13:58:08;24.90;99.90
23556;DHT22;11956;53.184;8.578;2023-07-28T14:01:09;24.80;99.90
23556;DHT22;11956;53.184;8.578;2023-07-28T14:04:10;24.80;99.90
23556;DHT22;11956;53.184;8.578;2023-07-28T14:07:11;24.80;99.90
23556;DHT22;11956;53.184;8.578;2023-07-28T14:10:12;24.80;99.90
23556;DHT22;11956;53.184;8.578;2023-07-28T14:13:13;24.90;99.90
23556;DHT22;11956;53.184;8.578;2023-07-28T14:16:14;25.00;99.90
23556;DHT22;11956;53.184;8.578;2023-07-28T14:19:15;25.10;99.90
23556;DHT22;11956;53.184;8.578;2023-07-28T14:22:15;25.00;99.90
23556;DHT22;11956;53.184;8.578;2023-07-28T14:25:16;24.90;99.90
23556;DHT22;11956;53.184;8.578;2023-07-28T14:28:18;24.90;99.90
23556;DHT22;11956;53.184;8.578;2023-07-28T14:31:19;24.80;99.90
23556;DHT22;11956;53.184;8.578;2023-07-28T14:34:20;24.90;99.90
23556;DHT22;11956;53.184;8.578;2023-07-28T14:37:21;25.00;99.90
23556;DHT22;11956;53.184;8.578;2023-07-28T14:40:22;25.10;99.90
23556;DHT22;11956;53.184;8.578;2023-07-28T14:43:23;25.00;99.90
23556;DHT22;11956;53.184;8.578;2023-07-28T14:46:25;24.90;99.90
23556;DHT22;11956;53.184;8.578;2023-07-28T14:49:26;24.80;99.90
23556;DHT22;11956;53.184;8.578;2023-07-28T14:52:28;24.90;99.90
23556;DHT22;11956;53.184;8.578;2023-07-28T14:55:29;25.00;99.90
23556;DHT22;11956;53.184;8.578;2023-07-28T14:58:30;25.20;99.90
23556;DHT22;11956;53.184;8.578;2023-07-28T15:01:31;25.30;99.90
23556;DHT22;11956;53.184;8.578;2023-07-28T15:04:33;25.20;99.90
23556;DHT22;11956;53.184;8.578;2023-07-28T15:07:34;25.00;99.90
23556;DHT22;11956;53.184;8.578;2023-07-28T15:10:38;25.00;99.90
23556;DHT22;11956;53.184;8.578;2023-07-28T15:13:39;24.90;99.90
23556;DHT22;11956;53.184;8.578;2023-07-28T15:16:40;24.60;99.90
23556;DHT22;11956;53.184;8.578;2023-07-28T15:19:41;24.50;99.90
23556;DHT22;11956;53.184;8.578;2023-07-28T15:22:42;24.50;99.90
23556;DHT22;11956;53.184;8.578;2023-07-28T15:25:42;24.40;99.90
23556;DHT22;11956;53.184;8.578;2023-07-28T15:28:45;24.50;99.90
23556;DHT22;11956;53.184;8.578;2023-07-28T15:31:46;24.70;99.90
23556;DHT22;11956;53.184;8.578;2023-07-28T15:34:47;24.90;99.90
23556;DHT22;11956;53.184;8.578;2023-07-28T15:37:48;25.20;99.90
23556;DHT22;11956;53.184;8.578;2023-07-28T15:40:49;25.30;99.90
23556;DHT22;11956;53.184;8.578;2023-07-28T15:43:50;25.20;99.90
23556;DHT22;11956;53.184;8.578;2023-07-28T15:46:51;25.10;99.90
23556;DHT22;11956;53.184;8.578;2023-07-28T15:49:53;24.90;99.90
23556;DHT22;11956;53.184;8.578;2023-07-28T15:52:54;24.80;99.90
23556;DHT22;11956;53.184;8.578;2023-07-28T15:55:55;24.80;99.90
23556;DHT22;11956;53.184;8.578;2023-07-28T15:58:56;24.80;99.90
23556;DHT22;11956;53.184;8.578;2023-07-28T16:01:56;24.80;99.90
23556;DHT22;11956;53.184;8.578;2023-07-28T16:04:58;24.80;99.90
23556;DHT22;11956;53.184;8.578;2023-07-28T16:07:58;25.00;99.90
23556;DHT22;11956;53.184;8.578;2023-07-28T16:10:59;24.80;99.90
23556;DHT22;11956;53.184;8.578;2023-07-28T16:14:00;24.70;99.90
23556;DHT22;11956;53.184;8.578;2023-07-28T16:17:01;24.50;99.90
23556;DHT22;11956;53.184;8.578;2023-07-28T16:20:03;24.40;99.90
23556;DHT22;11956;53.184;8.578;2023-07-28T16:23:04;24.50;99.90
23556;DHT22;11956;53.184;8.578;2023-07-28T16:26:05;24.50;99.90
23556;DHT22;11956;53.184;8.578;2023-07-28T16:29:06;24.40;99.90
23556;DHT22;11956;53.184;8.578;2023-07-28T16:32:08;24.40;99.90
23556;DHT22;11956;53.184;8.578;2023-07-28T16:35:12;24.50;99.90
23556;DHT22;11956;53.184;8.578;2023-07-28T16:38:15;24.30;99.90
23556;DHT22;11956;53.184;8.578;2023-07-28T16:41:16;24.10;99.90
23556;DHT22;11956;53.184;8.578;2023-07-28T16:44:17;23.90;99.90
23556;DHT22;11956;53.184;8.578;2023-07-28T16:47:18;23.70;99.90
23556;DHT22;11956;53.184;8.578;2023-07-28T16:50:20;23.70;99.90
23556;DHT22;11956;53.184;8.578;2023-07-28T16:53:21;23.80;99.90
23556;DHT22;11956;53.184;8.578;2023-07-28T16:56:23;24.00;99.90
23556;DHT22;11956;53.184;8.578;2023-07-28T16:59:24;24.20;99.90
23556;DHT22;11956;53.184;8.578;2023-07-28T17:02:25;24.40;99.90
23556;DHT22;11956;53.184;8.578;2023-07-28T17:05:25;24.50;99.90
23556;DHT22;11956;53.184;8.578;2023-07-28T17:08:26;24.50;99.90
23556;DHT22;11956;53.184;8.578;2023-07-28T17:11:27;24.40;99.90
23556;DHT22;11956;53.184;8.578;2023-07-28T17:14:28;24.40;99.90
23556;DHT22;11956;53.184;8.578;2023-07-28T17:17:29;24.30;99.90
23556;DHT22;11956;53.184;8.578;2023-07-28T17:20:30;24.10;99.90
23556;DHT22;11956;53.184;8.578;2023-07-28T17:23:31;24.10;99.90
23556;DHT22;11956;53.184;8.578;2023-07-28T17:26:32;24.10;99.90
23556;DHT22;11956;53.184;8.578;2023-07-28T17:29:33;24.00;99.90
23556;DHT22;11956;53.184;8.578;2023-07-28T17:32:33;23.90;99.90
23556;DHT22;11956;53.184;8.578;2023-07-28T17:35:34;23.80;99.90
23556;DHT22;11956;53.184;8.578;2023-07-28T17:38:35;23.80;99.90
23556;DHT22;11956;53.184;8.578;2023-07-28T17:41:36;23.70;99.90
23556;DHT22;11956;53.184;8.578;2023-07-28T17:44:37;23.50;99.90
23556;DHT22;11956;53.184;8.578;2023-07-28T17:47:38;23.40;99.90
23556;DHT22;11956;53.184;8.578;2023-07-28T17:50:39;23.30;99.90
23556;DHT22;11956;53.184;8.578;2023-07-28T17:53:40;23.20;99.90
23556;DHT22;11956;53.184;8.578;2023-07-28T17:56:40;23.10;99.90
23556;DHT22;11956;53.184;8.578;2023-07-28T17:59:41;23.10;99.90
23556;DHT22;11956;53.184;8.578;2023-07-28T18:02:42;23.10;99.90
23556;DHT22;11956;53.184;8.578;2023-07-28T18:05:43;23.10;99.90
23556;DHT22;11956;53.184;8.578;2023-07-28T18:08:44;23.10;99.90
23556;DHT22;11956;53.184;8.578;2023-07-28T18:11:45;23.00;99.90
23556;DHT22;11956;53.184;8.578;2023-07-28T18:14:46;22.80;99.90
23556;DHT22;11956;53.184;8.578;2023-07-28T18:17:47;22.70;99.90
23556;DHT22;11956;53.184;8.578;2023-07-28T18:20:48;22.70;99.90
23556;DHT22;11956;53.184;8.578;2023-07-28T18:23:49;22.60;99.90
23556;DHT22;11956;53.184;8.578;2023-07-28T18:26:50;22.60;99.90
23556;DHT22;11956;53.184;8.578;2023-07-28T18:29:51;22.50;99.90
23556;DHT22;11956;53.184;8.578;2023-07-28T18:32:52;22.40;99.90
23556;DHT22;11956;53.184;8.578;2023-07-28T18:35:53;22.40;99.90
23556;DHT22;11956;53.184;8.578;2023-07-28T18:38:56;22.50;99.90
23556;DHT22;11956;53.184;8.578;2023-07-28T18:41:56;22.50;99.90
23556;DHT22;11956;53.184;8.578;2023-07-28T18:44:57;22.40;99.90
23556;DHT22;11956;53.184;8.578;2023-07-28T18:47:58;22.30;99.90
23556;DHT22;11956;53.184;8.578;2023-07-28T18:50:59;22.20;99.90
23556;DHT22;11956;53.184;8.578;2023-07-28T18:54:02;22.00;99.90
23556;DHT22;11956;53.184;8.578;2023-07-28T18:57:03;22.00;99.90
23556;DHT22;11956;53.184;8.578;2023-07-28T19:00:05;21.80;99.90
23556;DHT22;11956;53.184;8.578;2023-07-28T19:03:07;21.70;99.90
23556;DHT22;11956;53.184;8.578;2023-07-28T19:06:08;21.50;99.90
23556;DHT22;11956;53.184;8.578;2023-07-28T19:09:09;21.30;99.90
23556;DHT22;11956;53.184;8.578;2023-07-28T19:12:10;21.20;99.90
23556;DHT22;11956;53.184;8.578;2023-07-28T19:15:10;21.10;99.90
23556;DHT22;11956;53.184;8.578;2023-07-28T19:18:11;21.00;99.90